createdAt,value
2023-04-16T00:00:20.153Z,44.50
2023-04-16T00:02:50.055Z,52.60
2023-04-16T00:05:22.565Z,41.20
2023-04-16T00:07:53.029Z,46.10
2023-04-16T00:10:22.818Z,43.07
2023-04-16T00:12:52.799Z,44.30
2023-04-16T00:15:22.690Z,43.37
2023-04-16T00:17:52.830Z,44.33
2023-04-16T00:20:25.499Z,43.70
2023-04-16T00:22:55.307Z,45.33
2023-04-16T00:25:25.195Z,38.83
2023-04-16T00:27:55.152Z,40.63
2023-04-16T00:30:25.638Z,40.60
2023-04-16T00:32:55.530Z,35.77
2023-04-16T00:35:27.926Z,38.80
2023-04-16T00:37:57.679Z,43.20
2023-04-16T00:40:30.325Z,39.93
2023-04-16T00:43:00.060Z,36.83
2023-04-16T00:45:30.155Z,40.57
2023-04-16T00:48:01.264Z,34.80
2023-04-16T00:50:33.643Z,45.80
2023-04-16T00:53:04.701Z,41.67
2023-04-16T00:55:34.589Z,41.40
2023-04-16T00:58:04.353Z,35.90
2023-04-16T01:00:34.151Z,38.33
2023-04-16T01:03:04.306Z,40.43
2023-04-16T01:05:36.780Z,35.07
2023-04-16T01:08:06.754Z,40.77
2023-04-16T01:10:36.478Z,40.33
2023-04-16T01:13:06.217Z,35.50
2023-04-16T01:15:36.146Z,38.90
2023-04-16T01:18:06.324Z,41.10
2023-04-16T01:20:40.123Z,37.03
2023-04-16T01:23:10.075Z,33.30
2023-04-16T01:25:39.960Z,34.40
2023-04-16T01:28:10.864Z,44.87
2023-04-16T01:30:40.639Z,37.03
2023-04-16T01:33:30.678Z,41.70
2023-04-16T01:36:03.033Z,40.73
2023-04-16T01:38:32.820Z,35.33
2023-04-16T01:41:02.572Z,35.17
2023-04-16T01:43:32.354Z,34.87
2023-04-16T01:46:16.570Z,36.47
2023-04-16T01:48:46.390Z,37.40
2023-04-16T01:51:18.736Z,33.97
2023-04-16T01:53:48.544Z,37.10
2023-04-16T01:56:18.276Z,32.43
2023-04-16T01:58:48.315Z,38.63
2023-04-16T02:01:20.039Z,34.77
2023-04-16T02:03:50.802Z,36.13
2023-04-16T02:06:23.285Z,38.47
2023-04-16T02:08:53.231Z,36.30
2023-04-16T02:11:23.998Z,34.60
2023-04-16T02:13:54.172Z,43.30
2023-04-16T02:16:24.253Z,38.80
2023-04-16T02:19:04.475Z,34.23
2023-04-16T02:21:40.045Z,42.50
2023-04-16T02:24:10.074Z,33.47
2023-04-16T02:26:40.112Z,36.00
2023-04-16T02:29:16.696Z,34.50
2023-04-16T02:31:52.965Z,34.57
2023-04-16T02:34:23.211Z,38.33
2023-04-16T02:36:55.863Z,38.53
2023-04-16T02:39:25.645Z,35.90
2023-04-16T02:41:56.400Z,38.20
2023-04-16T02:44:26.338Z,36.87
2023-04-16T02:46:56.094Z,37.30
2023-04-16T02:49:26.052Z,37.73
2023-04-16T02:51:58.342Z,37.83
2023-04-16T02:54:28.216Z,38.20
2023-04-16T02:56:57.975Z,36.60
2023-04-16T02:59:27.719Z,41.33
2023-04-16T03:01:57.550Z,38.43
2023-04-16T03:04:27.524Z,39.83
2023-04-16T03:06:59.904Z,43.23
2023-04-16T03:09:29.645Z,42.30
2023-04-16T03:11:59.683Z,37.67
2023-04-16T03:14:29.377Z,38.10
2023-04-16T03:16:59.217Z,42.70
2023-04-16T03:19:29.056Z,39.40
2023-04-16T03:22:01.436Z,44.50
2023-04-16T03:24:31.220Z,38.80
2023-04-16T03:27:02.762Z,41.10
2023-04-16T03:29:32.617Z,39.47
2023-04-16T03:32:02.433Z,38.60
2023-04-16T03:34:32.185Z,36.20
2023-04-16T03:37:06.270Z,45.00
2023-04-16T03:39:36.640Z,38.90
2023-04-16T03:42:06.715Z,42.57
2023-04-16T03:44:37.441Z,41.33
2023-04-16T03:47:07.171Z,40.37
2023-04-16T03:49:37.882Z,40.03
2023-04-16T03:52:11.406Z,46.23
2023-04-16T03:54:41.227Z,45.40
2023-04-16T03:57:22.349Z,43.70
2023-04-16T03:59:52.076Z,48.73
2023-04-16T04:02:22.357Z,41.57
2023-04-16T04:04:52.235Z,46.77
2023-04-16T04:07:24.609Z,48.50
2023-04-16T04:09:55.425Z,46.27
2023-04-16T04:12:25.206Z,46.67
2023-04-16T04:14:55.022Z,48.23
2023-04-16T04:17:24.912Z,48.90
2023-04-16T04:22:32.789Z,48.27
2023-04-16T04:25:02.634Z,47.23
2023-04-16T04:27:35.069Z,50.33
2023-04-16T04:30:06.479Z,49.40
2023-04-16T04:32:36.912Z,47.93
2023-04-16T04:35:07.091Z,51.73
2023-04-16T04:37:39.586Z,58.40
2023-04-16T04:40:16.750Z,45.40
2023-04-16T04:42:46.587Z,61.37
2023-04-16T04:45:16.471Z,52.07
2023-04-16T04:47:46.222Z,53.77
2023-04-16T04:50:16.021Z,62.70
2023-04-16T04:52:48.348Z,58.00
2023-04-16T04:55:18.105Z,57.23
2023-04-16T04:57:47.997Z,56.10
2023-04-16T05:00:17.743Z,54.70
2023-04-16T05:02:55.145Z,59.50
2023-04-16T05:05:25.280Z,60.77
2023-04-16T05:07:57.602Z,58.13
2023-04-16T05:10:27.363Z,61.17
2023-04-16T05:12:57.297Z,60.33
2023-04-16T05:15:27.054Z,55.40
2023-04-16T05:17:56.757Z,54.43
2023-04-16T05:20:26.897Z,55.10
2023-04-16T05:22:59.198Z,50.07
2023-04-16T05:25:28.926Z,59.87
2023-04-16T05:27:58.617Z,51.57
2023-04-16T05:30:28.399Z,56.17
2023-04-16T05:32:58.159Z,57.50
2023-04-16T05:35:27.930Z,53.33
2023-04-16T05:38:00.299Z,54.77
2023-04-16T05:40:30.032Z,54.00
2023-04-16T05:42:59.786Z,57.70
2023-04-16T05:45:29.622Z,57.87
2023-04-16T05:47:59.402Z,64.33
2023-04-16T05:50:29.195Z,55.57
2023-04-16T05:53:01.532Z,54.77
2023-04-16T05:55:31.301Z,55.47
2023-04-16T05:58:01.305Z,56.97
2023-04-16T06:00:31.077Z,56.87
2023-04-16T06:03:01.202Z,56.97
2023-04-16T06:05:31.961Z,52.93
2023-04-16T06:08:04.408Z,50.97
2023-04-16T06:10:34.233Z,52.53
2023-04-16T06:13:03.958Z,47.60
2023-04-16T06:15:33.693Z,48.00
2023-04-16T06:18:03.518Z,47.20
2023-04-16T06:20:33.572Z,53.37
2023-04-16T06:23:05.904Z,52.10
2023-04-16T06:25:35.665Z,47.23
2023-04-16T06:28:05.426Z,42.37
2023-04-16T06:30:35.303Z,49.10
2023-04-16T06:33:05.124Z,42.13
2023-04-16T06:35:34.857Z,45.30
2023-04-16T06:38:07.157Z,45.17
2023-04-16T06:40:37.663Z,53.20
2023-04-16T06:43:07.559Z,44.63
2023-04-16T06:45:37.553Z,44.70
2023-04-16T06:48:08.272Z,43.67
2023-04-16T06:50:38.014Z,44.53
2023-04-16T06:53:10.780Z,43.93
2023-04-16T06:55:40.535Z,39.47
2023-04-16T06:58:10.367Z,47.43
2023-04-16T07:00:40.169Z,39.33
2023-04-16T07:03:10.061Z,35.20
2023-04-16T07:05:40.256Z,36.40
2023-04-16T07:08:13.066Z,40.10
2023-04-16T07:10:42.826Z,38.60
2023-04-16T07:13:12.846Z,36.97
2023-04-16T07:15:42.571Z,36.57
2023-04-16T07:18:12.308Z,38.70
2023-04-16T07:20:43.128Z,41.27
2023-04-16T07:23:15.468Z,36.43
2023-04-16T07:25:46.001Z,37.03
2023-04-16T07:28:16.778Z,38.60
2023-04-16T07:30:46.543Z,35.87
2023-04-16T07:33:16.305Z,39.13
2023-04-16T07:35:46.193Z,39.80
2023-04-16T07:38:18.808Z,44.57
2023-04-16T07:40:48.627Z,41.27
2023-04-16T07:43:18.576Z,38.67
2023-04-16T07:45:48.632Z,44.90
2023-04-16T07:48:18.369Z,37.17
2023-04-16T07:50:48.138Z,41.93
2023-04-16T07:53:20.600Z,44.10
2023-04-16T07:55:50.308Z,41.60
2023-04-16T07:58:20.105Z,39.20
2023-04-16T08:00:51.075Z,35.60
2023-04-16T08:03:21.065Z,32.90
2023-04-16T08:05:50.938Z,39.50
2023-04-16T08:08:23.264Z,39.47
2023-04-16T08:10:55.966Z,37.67
2023-04-16T08:13:25.822Z,36.37
2023-04-16T08:15:55.615Z,39.40
2023-04-16T08:18:25.765Z,32.80
2023-04-16T08:20:55.547Z,43.10
2023-04-16T08:23:27.864Z,36.93
2023-04-16T08:25:57.754Z,33.10
2023-04-16T08:28:27.469Z,34.80
2023-04-16T08:30:57.260Z,45.13
2023-04-16T08:33:27.027Z,35.47
2023-04-16T08:35:56.795Z,36.43
2023-04-16T08:38:29.227Z,38.50
2023-04-16T08:41:01.550Z,34.20
2023-04-16T08:43:34.619Z,40.83
2023-04-16T08:46:06.335Z,37.70
2023-04-16T08:48:37.237Z,37.53
2023-04-16T08:51:12.282Z,37.73
2023-04-16T08:53:54.820Z,38.33
2023-04-16T08:56:27.507Z,32.67
2023-04-16T08:58:58.593Z,37.03
2023-04-16T09:01:29.573Z,27.93
2023-04-16T09:04:01.734Z,36.10
2023-04-16T09:06:32.252Z,36.67
2023-04-16T09:09:05.603Z,35.20
2023-04-16T09:11:35.684Z,31.30
2023-04-16T09:14:06.433Z,29.60
2023-04-16T09:16:37.087Z,33.23
2023-04-16T09:19:07.836Z,33.83
2023-04-16T09:21:38.336Z,32.10
2023-04-16T09:24:11.313Z,32.10
2023-04-16T09:26:41.588Z,32.20
2023-04-16T09:29:11.589Z,33.23
2023-04-16T09:31:41.707Z,36.90
2023-04-16T09:34:12.242Z,27.47
2023-04-16T09:36:42.017Z,37.63
2023-04-16T09:39:22.172Z,33.37
2023-04-16T09:41:52.711Z,29.47
2023-04-16T09:44:22.513Z,31.97
2023-04-16T09:46:52.262Z,32.67
2023-04-16T09:49:21.993Z,32.37
2023-04-16T09:51:54.764Z,29.73
2023-04-16T09:54:28.923Z,31.13
2023-04-16T09:56:59.961Z,32.50
2023-04-16T09:59:34.225Z,28.47
2023-04-16T10:02:15.291Z,35.57
2023-04-16T10:04:52.919Z,28.50
2023-04-16T10:07:23.545Z,33.77
2023-04-16T10:09:56.091Z,32.83
2023-04-16T10:12:25.858Z,30.53
2023-04-16T10:14:55.756Z,35.77
2023-04-16T10:17:26.190Z,31.53
2023-04-16T10:19:57.502Z,28.27
2023-04-16T10:22:27.313Z,34.50
2023-04-16T10:25:00.706Z,27.73
2023-04-16T10:27:31.259Z,28.30
2023-04-16T10:30:01.194Z,32.40
2023-04-16T10:32:31.836Z,30.30
2023-04-16T10:35:01.672Z,29.60
2023-04-16T10:37:34.960Z,30.23
2023-04-16T10:40:25.343Z,26.93
2023-04-16T10:42:59.279Z,31.20
2023-04-16T10:45:39.804Z,30.23
2023-04-16T10:48:15.206Z,30.47
2023-04-16T10:50:45.800Z,32.03
2023-04-16T10:53:24.216Z,34.93
2023-04-16T10:56:17.042Z,29.47
2023-04-16T10:58:49.687Z,30.90
2023-04-16T11:01:20.305Z,28.40
2023-04-16T11:03:52.545Z,36.03
2023-04-16T11:06:28.942Z,32.67
2023-04-16T11:09:02.264Z,32.23
2023-04-16T11:11:42.451Z,32.70
2023-04-16T11:14:15.231Z,34.97
2023-04-16T11:16:47.311Z,35.93
2023-04-16T11:19:20.702Z,33.80
2023-04-16T11:21:51.612Z,36.43
2023-04-16T11:24:22.789Z,36.60
2023-04-16T11:26:57.927Z,35.43
2023-04-16T11:29:28.853Z,32.17
2023-04-16T11:31:59.591Z,28.07
2023-04-16T11:34:30.558Z,38.90
2023-04-16T11:37:01.286Z,46.00
2023-04-16T11:39:32.247Z,28.37
2023-04-16T11:42:07.934Z,41.00
2023-04-16T11:44:38.620Z,32.37
2023-04-16T11:47:09.449Z,35.83
2023-04-16T11:49:42.826Z,34.23
2023-04-16T11:52:13.542Z,33.17
2023-04-16T11:54:44.508Z,36.90
2023-04-16T11:57:19.786Z,36.20
2023-04-16T12:00:01.553Z,33.10
2023-04-16T12:02:49.652Z,30.67
2023-04-16T12:05:31.504Z,33.67
2023-04-16T12:08:04.192Z,38.37
2023-04-16T12:10:38.087Z,35.80
2023-04-16T12:13:19.251Z,33.43
2023-04-16T12:15:53.746Z,36.23
2023-04-16T12:18:27.205Z,31.73
2023-04-16T12:20:57.999Z,33.43
2023-04-16T12:23:30.136Z,36.00
2023-04-16T12:26:03.087Z,38.03
2023-04-16T12:28:49.334Z,30.47
2023-04-16T12:31:20.737Z,37.13
2023-04-16T12:34:05.297Z,44.93
2023-04-16T12:36:37.435Z,38.50
2023-04-16T12:39:07.978Z,34.60
2023-04-16T12:41:41.235Z,35.77
2023-04-16T12:44:18.819Z,37.10
2023-04-16T12:46:50.070Z,34.57
2023-04-16T12:49:20.807Z,34.93
2023-04-16T12:51:52.867Z,33.30
2023-04-16T12:54:24.806Z,32.87
2023-04-16T12:56:55.415Z,30.57
2023-04-16T12:59:28.584Z,31.50
2023-04-16T13:01:59.289Z,35.33
2023-04-16T13:04:31.353Z,29.90
2023-04-16T13:07:01.419Z,33.70
2023-04-16T13:09:31.234Z,31.63
2023-04-16T13:12:01.016Z,26.50
2023-04-16T13:14:33.304Z,32.93
2023-04-16T13:17:04.173Z,30.50
2023-04-16T13:19:34.141Z,28.67
2023-04-16T13:22:06.120Z,30.93
2023-04-16T13:24:36.056Z,30.53
2023-04-16T13:27:06.020Z,27.17
2023-04-16T13:29:38.848Z,32.23
2023-04-16T13:32:09.876Z,29.47
2023-04-16T13:34:39.958Z,35.37
2023-04-16T13:37:09.747Z,28.57
2023-04-16T13:39:39.517Z,26.23
2023-04-16T13:42:09.431Z,26.10
2023-04-16T13:44:41.748Z,28.97
2023-04-16T13:47:11.857Z,29.60
2023-04-16T13:49:41.638Z,30.33
2023-04-16T13:52:11.356Z,31.80
2023-04-16T13:54:43.874Z,28.60
2023-04-16T13:57:22.919Z,26.20
2023-04-16T13:59:55.354Z,27.17
2023-04-16T14:02:26.310Z,28.47
2023-04-16T14:04:56.477Z,27.33
2023-04-16T14:07:27.392Z,25.73
2023-04-16T14:09:57.254Z,26.80
2023-04-16T14:12:27.040Z,27.47
2023-04-16T14:14:59.473Z,28.20
2023-04-16T14:17:29.225Z,28.00
2023-04-16T14:19:59.069Z,27.70
2023-04-16T14:22:28.866Z,26.40
2023-04-16T14:24:59.108Z,23.80
2023-04-16T14:27:28.925Z,29.73
2023-04-16T14:30:01.603Z,26.53
2023-04-16T14:32:31.449Z,25.90
2023-04-16T14:35:01.276Z,26.10
2023-04-16T14:37:31.267Z,26.57
2023-04-16T14:40:01.016Z,31.80
2023-04-16T14:42:30.760Z,27.97
2023-04-16T14:45:03.097Z,28.43
2023-04-16T14:47:32.886Z,32.30
2023-04-16T14:50:02.691Z,27.03
2023-04-16T14:52:33.903Z,27.13
2023-04-16T14:55:03.663Z,23.90
2023-04-16T14:57:33.573Z,24.63
2023-04-16T15:00:09.208Z,23.40
2023-04-16T15:02:39.559Z,31.90
2023-04-16T15:05:10.788Z,27.13
2023-04-16T15:07:40.848Z,27.90
2023-04-16T15:10:12.826Z,28.13
2023-04-16T15:12:43.054Z,28.10
2023-04-16T15:15:16.006Z,28.03
2023-04-16T15:17:46.360Z,29.40
2023-04-16T15:20:16.396Z,26.47
2023-04-16T15:22:46.331Z,29.13
2023-04-16T15:25:16.080Z,24.27
2023-04-16T15:27:45.827Z,28.60
2023-04-16T15:30:18.539Z,23.43
2023-04-16T15:32:48.410Z,26.03
2023-04-16T15:35:18.133Z,21.43
2023-04-16T15:37:47.896Z,23.87
2023-04-16T15:40:19.051Z,29.53
2023-04-16T15:42:48.823Z,22.23
2023-04-16T15:45:21.404Z,22.90
2023-04-16T15:47:51.570Z,26.37
2023-04-16T15:50:22.041Z,24.03
2023-04-16T15:52:52.006Z,25.03
2023-04-16T15:55:22.088Z,27.00
2023-04-16T15:57:52.488Z,25.53
2023-04-16T16:00:24.897Z,22.50
2023-04-16T16:02:54.731Z,23.40
2023-04-16T16:05:24.749Z,23.30
2023-04-16T16:07:54.681Z,27.23
2023-04-16T16:10:24.424Z,25.30
2023-04-16T16:12:54.192Z,28.97
2023-04-16T16:15:26.514Z,23.47
2023-04-16T16:17:58.392Z,25.73
2023-04-16T16:20:28.777Z,25.20
2023-04-16T16:22:58.514Z,24.10
2023-04-16T16:25:28.250Z,25.53
2023-04-16T16:27:58.972Z,25.90
2023-04-16T16:30:32.990Z,26.57
2023-04-16T16:33:02.883Z,27.50
2023-04-16T16:35:32.728Z,37.83
2023-04-16T16:38:02.455Z,23.30
2023-04-16T16:40:33.202Z,31.50
2023-04-16T16:43:03.019Z,25.37
2023-04-16T16:45:35.489Z,27.63
2023-04-16T16:48:06.144Z,26.63
2023-04-16T16:50:35.949Z,27.67
2023-04-16T16:53:06.110Z,31.80
2023-04-16T16:55:35.924Z,25.20
2023-04-16T16:58:05.916Z,28.47
2023-04-16T17:00:38.283Z,27.60
2023-04-16T17:03:09.019Z,26.97
2023-04-16T17:05:39.406Z,30.73
2023-04-16T17:08:09.539Z,34.30
2023-04-16T17:10:39.301Z,40.23
2023-04-16T17:13:09.058Z,37.83
2023-04-16T17:15:41.396Z,31.83
2023-04-16T17:18:11.180Z,33.20
2023-04-16T17:20:41.143Z,31.90
2023-04-16T17:23:11.346Z,32.27
2023-04-16T17:25:41.209Z,28.77
2023-04-16T17:28:11.035Z,34.50
2023-04-16T17:30:43.357Z,31.70
2023-04-16T17:33:13.201Z,31.00
2023-04-16T17:35:43.256Z,29.80
2023-04-16T17:38:13.030Z,34.20
2023-04-16T17:40:42.847Z,40.70
2023-04-16T17:43:12.610Z,33.07
2023-04-16T17:45:44.971Z,26.33
2023-04-16T17:48:14.733Z,28.70
2023-04-16T17:50:44.491Z,36.23
2023-04-16T17:53:14.585Z,25.07
2023-04-16T17:55:54.559Z,30.63
2023-04-16T17:58:26.579Z,27.80
2023-04-16T18:00:58.894Z,33.03
2023-04-16T18:03:28.847Z,32.80
2023-04-16T18:05:58.676Z,30.00
2023-04-16T18:08:29.080Z,28.03
2023-04-16T18:10:58.965Z,27.40
2023-04-16T18:13:28.793Z,25.07
2023-04-16T18:16:01.239Z,25.50
2023-04-16T18:18:31.100Z,24.47
2023-04-16T18:21:00.841Z,24.60
2023-04-16T18:23:30.643Z,23.20
2023-04-16T18:26:00.604Z,20.60
2023-04-16T18:28:30.458Z,25.70
2023-04-16T18:31:05.701Z,24.33
2023-04-16T18:33:53.373Z,31.40
2023-04-16T18:36:26.162Z,23.03
2023-04-16T18:41:29.192Z,23.33
2023-04-16T18:43:59.201Z,24.23
2023-04-16T18:46:31.639Z,24.40
2023-04-16T18:49:01.785Z,20.80
2023-04-16T18:51:31.835Z,19.40
2023-04-16T18:54:02.304Z,21.23
2023-04-16T18:56:32.378Z,19.63
2023-04-16T18:59:02.277Z,21.87
2023-04-16T19:01:34.681Z,18.07
2023-04-16T19:04:04.428Z,19.83
2023-04-16T19:06:34.202Z,20.27
2023-04-16T19:09:03.910Z,17.53
2023-04-16T19:11:33.648Z,19.40
2023-04-16T19:14:05.533Z,17.57
2023-04-16T19:16:41.877Z,21.50
2023-04-16T19:19:11.942Z,20.00
2023-04-16T19:21:41.932Z,22.70
2023-04-16T19:24:11.883Z,18.53
2023-04-16T19:26:41.634Z,21.63
2023-04-16T19:29:11.930Z,19.77
2023-04-16T19:31:46.444Z,21.70
2023-04-16T19:34:16.932Z,21.97
2023-04-16T19:36:47.274Z,21.30
2023-04-16T19:39:16.995Z,21.60
2023-04-16T19:41:46.722Z,24.00
2023-04-16T19:44:16.470Z,19.30
2023-04-16T19:46:48.816Z,20.83
2023-04-16T19:49:18.788Z,19.30
2023-04-16T19:51:49.015Z,21.03
2023-04-16T19:54:18.746Z,22.23
2023-04-16T19:56:49.074Z,22.10
2023-04-16T19:59:18.831Z,22.20
2023-04-16T20:01:51.392Z,19.13
2023-04-16T20:04:21.178Z,21.40
2023-04-16T20:06:50.945Z,16.23
2023-04-16T20:09:21.018Z,21.30
2023-04-16T20:11:51.698Z,17.90
2023-04-16T20:14:21.565Z,21.07
2023-04-16T20:16:53.898Z,22.83
2023-04-16T20:19:31.497Z,21.50
2023-04-16T20:22:01.281Z,24.37
2023-04-16T20:24:31.274Z,20.80
2023-04-16T20:27:01.868Z,20.97
2023-04-16T20:29:31.784Z,24.77
2023-04-16T20:32:04.183Z,22.60
2023-04-16T20:34:34.004Z,23.03
2023-04-16T20:37:03.784Z,25.67
2023-04-16T20:39:34.381Z,24.40
2023-04-16T20:42:04.462Z,23.27
2023-04-16T20:44:40.589Z,25.80
2023-04-16T20:47:15.459Z,24.03
2023-04-16T20:49:46.510Z,24.23
2023-04-16T20:52:16.757Z,26.30
2023-04-16T20:54:47.363Z,26.70
2023-04-16T20:57:17.205Z,24.63
2023-04-16T20:59:46.961Z,23.27
2023-04-16T21:02:20.294Z,23.67
2023-04-16T21:04:50.386Z,25.40
2023-04-16T21:07:20.456Z,25.33
2023-04-16T21:09:51.249Z,26.80
2023-04-16T21:12:21.251Z,24.33
2023-04-16T21:14:51.096Z,32.07
2023-04-16T21:17:23.497Z,25.20
2023-04-16T21:19:53.273Z,26.80
2023-04-16T21:22:23.116Z,25.27
2023-04-16T21:24:52.921Z,31.40
2023-04-16T21:27:22.818Z,25.70
2023-04-16T21:29:52.779Z,22.43
2023-04-16T21:32:25.181Z,27.90
2023-04-16T21:34:54.965Z,26.63
2023-04-16T21:37:24.766Z,31.57
2023-04-16T21:39:54.537Z,25.73
2023-04-16T21:42:24.257Z,25.43
2023-04-16T21:44:54.052Z,23.33
2023-04-16T21:47:26.755Z,24.30
2023-04-16T21:49:56.492Z,28.30
2023-04-16T21:52:26.277Z,25.13
2023-04-16T21:54:56.022Z,26.77
2023-04-16T21:57:25.836Z,24.90
2023-04-16T21:59:55.594Z,25.57
2023-04-16T22:02:28.816Z,28.20
2023-04-16T22:04:58.739Z,28.50
2023-04-16T22:07:29.124Z,27.07
2023-04-16T22:09:59.213Z,27.23
2023-04-16T22:12:29.056Z,32.60
2023-04-16T22:15:02.731Z,31.83
2023-04-16T22:17:36.064Z,31.53
2023-04-16T22:20:09.506Z,30.10
2023-04-16T22:22:39.279Z,25.70
2023-04-16T22:25:09.999Z,27.77
2023-04-16T22:27:40.171Z,27.03
2023-04-16T22:30:11.383Z,28.77
2023-04-16T22:32:43.814Z,28.17
2023-04-16T22:35:13.768Z,27.10
2023-04-16T22:37:43.620Z,29.10
2023-04-16T22:40:13.735Z,28.53
2023-04-16T22:42:43.565Z,27.03
2023-04-16T22:45:14.451Z,28.23
2023-04-16T22:47:46.833Z,28.30
2023-04-16T22:50:16.766Z,26.40
2023-04-16T22:52:46.525Z,29.00
2023-04-16T22:55:16.319Z,25.60
2023-04-16T22:57:46.053Z,28.47
2023-04-16T23:00:17.962Z,33.50
2023-04-16T23:02:50.524Z,27.20
2023-04-16T23:05:20.445Z,31.03
2023-04-16T23:07:50.273Z,29.60
2023-04-16T23:10:20.434Z,28.83
2023-04-16T23:12:50.221Z,26.40
2023-04-16T23:15:20.281Z,25.60
2023-04-16T23:17:52.854Z,25.33
2023-04-16T23:20:22.703Z,30.60
2023-04-16T23:22:52.932Z,26.13
2023-04-16T23:25:23.762Z,29.53
2023-04-16T23:27:53.603Z,22.93
2023-04-16T23:30:23.490Z,26.00
2023-04-16T23:32:55.852Z,22.33
2023-04-16T23:35:25.595Z,31.67
2023-04-16T23:37:55.470Z,30.73
2023-04-16T23:40:25.855Z,26.77
2023-04-16T23:42:55.609Z,29.77
2023-04-16T23:45:25.420Z,26.60
2023-04-16T23:47:57.881Z,25.10
2023-04-16T23:50:27.764Z,24.70
2023-04-16T23:52:57.518Z,27.37
2023-04-16T23:55:27.641Z,26.03
2023-04-16T23:57:57.379Z,25.57
